sensor_id;sensor_type;location;lat;lon;timestamp;P1;durP1;ratioP1;P2;durP2;ratioP2
45792;SDS011;31495;42.740;22.908;2023-04-25T00:00:13;0.50;;;0.40;;
45792;SDS011;31495;42.740;22.908;2023-04-25T00:01:12;1.20;;;0.30;;
45792;SDS011;31495;42.740;22.908;2023-04-25T00:02:12;0.38;;;0.20;;
45792;SDS011;31495;42.740;22.908;2023-04-25T00:03:12;0.65;;;0.30;;
45792;SDS011;31495;42.740;22.908;2023-04-25T00:04:13;0.40;;;0.30;;
45792;SDS011;31495;42.740;22.908;2023-04-25T00:05:12;0.60;;;0.30;;
45792;SDS011;31495;42.740;22.908;2023-04-25T00:06:14;1.40;;;0.35;;
45792;SDS011;31495;42.740;22.908;2023-04-25T00:07:13;0.68;;;0.32;;
45792;SDS011;31495;42.740;22.908;2023-04-25T00:08:12;0.40;;;0.20;;
45792;SDS011;31495;42.740;22.908;2023-04-25T00:09:12;0.50;;;0.28;;
45792;SDS011;31495;42.740;22.908;2023-04-25T00:10:11;1.55;;;0.75;;
45792;SDS011;31495;42.740;22.908;2023-04-25T00:11:11;0.70;;;0.32;;
45792;SDS011;31495;42.740;22.908;2023-04-25T00:12:10;2.08;;;0.52;;
45792;SDS011;31495;42.740;22.908;2023-04-25T00:13:10;4.22;;;0.40;;
45792;SDS011;31495;42.740;22.908;2023-04-25T00:14:10;0.82;;;0.40;;
45792;SDS011;31495;42.740;22.908;2023-04-25T00:15:10;0.68;;;0.35;;
45792;SDS011;31495;42.740;22.908;2023-04-25T00:16:11;1.73;;;0.50;;
45792;SDS011;31495;42.740;22.908;2023-04-25T00:17:13;1.02;;;0.50;;
45792;SDS011;31495;42.740;22.908;2023-04-25T00:18:14;1.65;;;0.73;;
45792;SDS011;31495;42.740;22.908;2023-04-25T00:19:14;2.70;;;0.85;;
45792;SDS011;31495;42.740;22.908;2023-04-25T00:20:13;0.68;;;0.30;;
45792;SDS011;31495;42.740;22.908;2023-04-25T00:21:13;0.57;;;0.30;;
45792;SDS011;31495;42.740;22.908;2023-04-25T00:22:14;0.90;;;0.40;;
45792;SDS011;31495;42.740;22.908;2023-04-25T00:23:14;0.90;;;0.40;;
45792;SDS011;31495;42.740;22.908;2023-04-25T00:24:17;1.33;;;0.40;;
45792;SDS011;31495;42.740;22.908;2023-04-25T00:25:16;1.30;;;0.50;;
45792;SDS011;31495;42.740;22.908;2023-04-25T00:26:16;1.45;;;0.50;;
45792;SDS011;31495;42.740;22.908;2023-04-25T00:27:15;0.70;;;0.20;;
45792;SDS011;31495;42.740;22.908;2023-04-25T00:28:15;1.20;;;0.40;;
45792;SDS011;31495;42.740;22.908;2023-04-25T00:29:14;0.93;;;0.50;;
45792;SDS011;31495;42.740;22.908;2023-04-25T00:30:14;1.00;;;0.45;;
45792;SDS011;31495;42.740;22.908;2023-04-25T00:31:14;1.35;;;0.40;;
45792;SDS011;31495;42.740;22.908;2023-04-25T00:32:13;0.75;;;0.30;;
45792;SDS011;31495;42.740;22.908;2023-04-25T00:33:13;0.75;;;0.20;;
45792;SDS011;31495;42.740;22.908;2023-04-25T00:34:12;0.57;;;0.30;;
45792;SDS011;31495;42.740;22.908;2023-04-25T00:35:12;0.68;;;0.30;;
45792;SDS011;31495;42.740;22.908;2023-04-25T00:36:11;1.15;;;0.30;;
45792;SDS011;31495;42.740;22.908;2023-04-25T00:37:11;0.98;;;0.30;;
45792;SDS011;31495;42.740;22.908;2023-04-25T00:38:11;2.88;;;0.40;;
45792;SDS011;31495;42.740;22.908;2023-04-25T00:39:11;0.93;;;0.32;;
45792;SDS011;31495;42.740;22.908;2023-04-25T00:40:12;0.95;;;0.40;;
45792;SDS011;31495;42.740;22.908;2023-04-25T00:41:12;0.50;;;0.20;;
45792;SDS011;31495;42.740;22.908;2023-04-25T00:42:12;1.13;;;0.50;;
45792;SDS011;31495;42.740;22.908;2023-04-25T00:43:11;3.40;;;0.65;;
45792;SDS011;31495;42.740;22.908;2023-04-25T00:44:11;2.53;;;0.50;;
45792;SDS011;31495;42.740;22.908;2023-04-25T00:45:12;1.98;;;0.55;;
45792;SDS011;31495;42.740;22.908;2023-04-25T00:46:14;2.03;;;0.60;;
45792;SDS011;31495;42.740;22.908;2023-04-25T00:47:13;0.93;;;0.63;;
45792;SDS011;31495;42.740;22.908;2023-04-25T00:48:14;2.08;;;1.27;;
45792;SDS011;31495;42.740;22.908;2023-04-25T00:49:14;2.20;;;0.82;;
45792;SDS011;31495;42.740;22.908;2023-04-25T00:50:16;0.80;;;0.43;;
45792;SDS011;31495;42.740;22.908;2023-04-25T00:51:16;2.90;;;0.60;;
45792;SDS011;31495;42.740;22.908;2023-04-25T00:52:19;2.15;;;0.55;;
45792;SDS011;31495;42.740;22.908;2023-04-25T00:53:20;1.52;;;0.50;;
45792;SDS011;31495;42.740;22.908;2023-04-25T00:54:20;3.97;;;1.58;;
45792;SDS011;31495;42.740;22.908;2023-04-25T00:55:20;1.23;;;0.50;;
45792;SDS011;31495;42.740;22.908;2023-04-25T00:56:20;1.58;;;0.65;;
45792;SDS011;31495;42.740;22.908;2023-04-25T00:57:20;2.35;;;0.90;;
45792;SDS011;31495;42.740;22.908;2023-04-25T00:58:20;4.45;;;1.20;;
45792;SDS011;31495;42.740;22.908;2023-04-25T00:59:21;1.70;;;0.95;;
45792;SDS011;31495;42.740;22.908;2023-04-25T01:00:20;2.83;;;0.90;;
45792;SDS011;31495;42.740;22.908;2023-04-25T01:01:20;1.45;;;0.80;;
45792;SDS011;31495;42.740;22.908;2023-04-25T01:02:20;3.15;;;1.50;;
45792;SDS011;31495;42.740;22.908;2023-04-25T01:03:20;3.63;;;1.65;;
45792;SDS011;31495;42.740;22.908;2023-04-25T01:04:19;4.47;;;2.05;;
45792;SDS011;31495;42.740;22.908;2023-04-25T01:05:19;2.60;;;1.55;;
45792;SDS011;31495;42.740;22.908;2023-04-25T01:06:18;2.90;;;1.85;;
45792;SDS011;31495;42.740;22.908;2023-04-25T01:07:18;3.20;;;1.60;;
45792;SDS011;31495;42.740;22.908;2023-04-25T01:08:18;4.00;;;1.98;;
45792;SDS011;31495;42.740;22.908;2023-04-25T01:09:20;4.97;;;1.88;;
45792;SDS011;31495;42.740;22.908;2023-04-25T01:10:21;2.67;;;1.60;;
45792;SDS011;31495;42.740;22.908;2023-04-25T01:11:21;2.13;;;1.45;;
45792;SDS011;31495;42.740;22.908;2023-04-25T01:12:21;3.80;;;2.03;;
45792;SDS011;31495;42.740;22.908;2023-04-25T01:13:20;4.93;;;2.08;;
45792;SDS011;31495;42.740;22.908;2023-04-25T01:14:20;4.10;;;1.30;;
45792;SDS011;31495;42.740;22.908;2023-04-25T01:15:19;2.92;;;1.83;;
45792;SDS011;31495;42.740;22.908;2023-04-25T01:16:19;1.92;;;1.00;;
45792;SDS011;31495;42.740;22.908;2023-04-25T01:17:19;2.25;;;1.10;;
45792;SDS011;31495;42.740;22.908;2023-04-25T01:18:20;2.35;;;1.13;;
45792;SDS011;31495;42.740;22.908;2023-04-25T01:19:20;6.53;;;1.27;;
45792;SDS011;31495;42.740;22.908;2023-04-25T01:20:20;2.20;;;1.02;;
45792;SDS011;31495;42.740;22.908;2023-04-25T01:21:22;1.98;;;0.90;;
45792;SDS011;31495;42.740;22.908;2023-04-25T01:22:21;1.73;;;0.90;;
45792;SDS011;31495;42.740;22.908;2023-04-25T01:23:22;1.02;;;0.60;;
45792;SDS011;31495;42.740;22.908;2023-04-25T01:24:21;1.50;;;0.60;;
45792;SDS011;31495;42.740;22.908;2023-04-25T01:25:22;1.60;;;0.70;;
45792;SDS011;31495;42.740;22.908;2023-04-25T01:26:22;1.77;;;0.80;;
45792;SDS011;31495;42.740;22.908;2023-04-25T01:27:22;1.08;;;0.50;;
45792;SDS011;31495;42.740;22.908;2023-04-25T01:28:22;1.08;;;0.50;;
45792;SDS011;31495;42.740;22.908;2023-04-25T01:29:22;0.88;;;0.40;;
45792;SDS011;31495;42.740;22.908;2023-04-25T01:30:23;0.80;;;0.30;;
45792;SDS011;31495;42.740;22.908;2023-04-25T01:31:24;0.22;;;0.20;;
45792;SDS011;31495;42.740;22.908;2023-04-25T01:32:25;0.70;;;0.30;;
45792;SDS011;31495;42.740;22.908;2023-04-25T01:33:25;0.77;;;0.38;;
45792;SDS011;31495;42.740;22.908;2023-04-25T01:34:25;0.47;;;0.20;;
45792;SDS011;31495;42.740;22.908;2023-04-25T01:35:25;1.20;;;0.28;;
45792;SDS011;31495;42.740;22.908;2023-04-25T01:36:24;1.55;;;0.30;;
45792;SDS011;31495;42.740;22.908;2023-04-25T01:37:24;1.38;;;0.40;;
45792;SDS011;31495;42.740;22.908;2023-04-25T01:38:23;0.63;;;0.30;;
45792;SDS011;31495;42.740;22.908;2023-04-25T01:39:23;1.25;;;0.40;;
45792;SDS011;31495;42.740;22.908;2023-04-25T01:40:24;1.90;;;0.40;;
45792;SDS011;31495;42.740;22.908;2023-04-25T01:41:23;0.77;;;0.40;;
45792;SDS011;31495;42.740;22.908;2023-04-25T01:42:23;1.85;;;0.82;;
45792;SDS011;31495;42.740;22.908;2023-04-25T01:43:23;1.38;;;0.70;;
45792;SDS011;31495;42.740;22.908;2023-04-25T01:44:23;1.27;;;0.57;;
45792;SDS011;31495;42.740;22.908;2023-04-25T01:45:23;2.28;;;0.70;;
45792;SDS011;31495;42.740;22.908;2023-04-25T01:46:22;0.98;;;0.70;;
45792;SDS011;31495;42.740;22.908;2023-04-25T01:47:21;1.25;;;0.40;;
45792;SDS011;31495;42.740;22.908;2023-04-25T01:48:21;2.30;;;0.60;;
45792;SDS011;31495;42.740;22.908;2023-04-25T01:49:20;1.10;;;0.52;;
45792;SDS011;31495;42.740;22.908;2023-04-25T01:50:20;2.83;;;0.50;;
45792;SDS011;31495;42.740;22.908;2023-04-25T01:51:22;1.05;;;0.55;;
45792;SDS011;31495;42.740;22.908;2023-04-25T01:52:21;3.30;;;0.63;;
45792;SDS011;31495;42.740;22.908;2023-04-25T01:53:21;0.93;;;0.40;;
45792;SDS011;31495;42.740;22.908;2023-04-25T01:54:21;2.72;;;0.60;;
45792;SDS011;31495;42.740;22.908;2023-04-25T01:55:21;1.10;;;0.50;;
45792;SDS011;31495;42.740;22.908;2023-04-25T01:56:20;0.73;;;0.40;;
45792;SDS011;31495;42.740;22.908;2023-04-25T01:57:20;0.90;;;0.50;;
45792;SDS011;31495;42.740;22.908;2023-04-25T01:58:19;1.42;;;0.60;;
45792;SDS011;31495;42.740;22.908;2023-04-25T01:59:19;2.17;;;0.50;;
45792;SDS011;31495;42.740;22.908;2023-04-25T02:00:21;1.42;;;0.50;;
45792;SDS011;31495;42.740;22.908;2023-04-25T02:01:21;0.93;;;0.45;;
45792;SDS011;31495;42.740;22.908;2023-04-25T02:02:21;1.00;;;0.40;;
45792;SDS011;31495;42.740;22.908;2023-04-25T02:03:20;1.02;;;0.60;;
45792;SDS011;31495;42.740;22.908;2023-04-25T02:04:19;1.55;;;0.70;;
45792;SDS011;31495;42.740;22.908;2023-04-25T02:05:19;2.40;;;1.00;;
45792;SDS011;31495;42.740;22.908;2023-04-25T02:06:20;5.28;;;1.70;;
45792;SDS011;31495;42.740;22.908;2023-04-25T02:07:19;3.35;;;1.70;;
45792;SDS011;31495;42.740;22.908;2023-04-25T02:08:19;2.50;;;1.33;;
45792;SDS011;31495;42.740;22.908;2023-04-25T02:09:19;3.17;;;1.25;;
45792;SDS011;31495;42.740;22.908;2023-04-25T02:10:19;2.67;;;1.48;;
45792;SDS011;31495;42.740;22.908;2023-04-25T02:11:18;2.85;;;1.10;;
45792;SDS011;31495;42.740;22.908;2023-04-25T02:12:18;2.65;;;1.55;;
45792;SDS011;31495;42.740;22.908;2023-04-25T02:13:18;2.38;;;0.95;;
45792;SDS011;31495;42.740;22.908;2023-04-25T02:14:17;1.58;;;0.65;;
45792;SDS011;31495;42.740;22.908;2023-04-25T02:15:17;4.03;;;1.40;;
45792;SDS011;31495;42.740;22.908;2023-04-25T02:16:16;2.03;;;0.80;;
45792;SDS011;31495;42.740;22.908;2023-04-25T02:17:17;2.67;;;1.48;;
45792;SDS011;31495;42.740;22.908;2023-04-25T02:18:16;4.22;;;1.52;;
45792;SDS011;31495;42.740;22.908;2023-04-25T02:19:16;4.30;;;1.75;;
45792;SDS011;31495;42.740;22.908;2023-04-25T02:20:16;3.38;;;1.30;;
45792;SDS011;31495;42.740;22.908;2023-04-25T02:21:16;3.50;;;1.02;;
45792;SDS011;31495;42.740;22.908;2023-04-25T02:22:15;2.33;;;1.20;;
45792;SDS011;31495;42.740;22.908;2023-04-25T02:23:15;3.08;;;1.25;;
45792;SDS011;31495;42.740;22.908;2023-04-25T02:24:14;2.80;;;0.90;;
45792;SDS011;31495;42.740;22.908;2023-04-25T02:25:14;1.83;;;1.13;;
45792;SDS011;31495;42.740;22.908;2023-04-25T02:26:14;2.45;;;0.90;;
45792;SDS011;31495;42.740;22.908;2023-04-25T02:27:14;2.42;;;1.13;;
45792;SDS011;31495;42.740;22.908;2023-04-25T02:28:14;2.40;;;1.10;;
45792;SDS011;31495;42.740;22.908;2023-04-25T02:29:14;2.13;;;0.90;;
45792;SDS011;31495;42.740;22.908;2023-04-25T02:30:14;2.20;;;0.90;;
45792;SDS011;31495;42.740;22.908;2023-04-25T02:31:14;2.38;;;1.25;;
45792;SDS011;31495;42.740;22.908;2023-04-25T02:32:13;2.08;;;1.02;;
45792;SDS011;31495;42.740;22.908;2023-04-25T02:33:13;3.17;;;1.38;;
45792;SDS011;31495;42.740;22.908;2023-04-25T02:34:16;3.33;;;1.20;;
45792;SDS011;31495;42.740;22.908;2023-04-25T02:35:15;3.08;;;1.30;;
45792;SDS011;31495;42.740;22.908;2023-04-25T02:36:15;2.30;;;1.00;;
45792;SDS011;31495;42.740;22.908;2023-04-25T02:37:14;1.85;;;1.08;;
45792;SDS011;31495;42.740;22.908;2023-04-25T02:38:14;2.60;;;1.55;;
45792;SDS011;31495;42.740;22.908;2023-04-25T02:39:14;3.97;;;1.67;;
45792;SDS011;31495;42.740;22.908;2023-04-25T02:40:13;2.85;;;1.42;;
45792;SDS011;31495;42.740;22.908;2023-04-25T02:41:12;2.50;;;1.23;;
45792;SDS011;31495;42.740;22.908;2023-04-25T02:42:12;3.40;;;2.03;;
45792;SDS011;31495;42.740;22.908;2023-04-25T02:43:11;4.28;;;1.77;;
45792;SDS011;31495;42.740;22.908;2023-04-25T02:44:11;3.70;;;2.00;;
45792;SDS011;31495;42.740;22.908;2023-04-25T02:45:10;3.58;;;1.73;;
45792;SDS011;31495;42.740;22.908;2023-04-25T02:46:10;6.88;;;1.83;;
45792;SDS011;31495;42.740;22.908;2023-04-25T02:47:09;4.03;;;1.10;;
45792;SDS011;31495;42.740;22.908;2023-04-25T02:48:08;4.68;;;1.20;;
45792;SDS011;31495;42.740;22.908;2023-04-25T02:49:08;2.90;;;1.38;;
45792;SDS011;31495;42.740;22.908;2023-04-25T02:50:07;2.67;;;1.30;;
45792;SDS011;31495;42.740;22.908;2023-04-25T02:51:07;2.58;;;1.35;;
45792;SDS011;31495;42.740;22.908;2023-04-25T02:52:07;2.47;;;1.30;;
45792;SDS011;31495;42.740;22.908;2023-04-25T02:53:07;2.67;;;1.73;;
45792;SDS011;31495;42.740;22.908;2023-04-25T02:54:06;4.72;;;1.73;;
45792;SDS011;31495;42.740;22.908;2023-04-25T02:55:06;2.95;;;1.50;;
45792;SDS011;31495;42.740;22.908;2023-04-25T02:56:06;4.13;;;1.63;;
45792;SDS011;31495;42.740;22.908;2023-04-25T02:57:05;2.72;;;1.63;;
45792;SDS011;31495;42.740;22.908;2023-04-25T02:58:06;4.18;;;1.52;;
45792;SDS011;31495;42.740;22.908;2023-04-25T02:59:05;3.83;;;1.88;;
45792;SDS011;31495;42.740;22.908;2023-04-25T03:00:04;3.10;;;1.63;;
45792;SDS011;31495;42.740;22.908;2023-04-25T03:01:05;2.65;;;1.70;;
45792;SDS011;31495;42.740;22.908;2023-04-25T03:02:04;2.20;;;1.52;;
45792;SDS011;31495;42.740;22.908;2023-04-25T03:03:04;4.40;;;1.88;;
45792;SDS011;31495;42.740;22.908;2023-04-25T03:04:03;4.30;;;2.10;;
45792;SDS011;31495;42.740;22.908;2023-04-25T03:05:03;3.65;;;2.22;;
45792;SDS011;31495;42.740;22.908;2023-04-25T03:06:03;3.58;;;2.22;;
45792;SDS011;31495;42.740;22.908;2023-04-25T03:07:02;5.05;;;2.83;;
45792;SDS011;31495;42.740;22.908;2023-04-25T03:08:03;3.47;;;2.03;;
45792;SDS011;31495;42.740;22.908;2023-04-25T03:09:03;4.75;;;3.17;;
45792;SDS011;31495;42.740;22.908;2023-04-25T03:10:03;5.15;;;2.22;;
45792;SDS011;31495;42.740;22.908;2023-04-25T03:11:03;3.75;;;2.33;;
45792;SDS011;31495;42.740;22.908;2023-04-25T03:12:02;3.35;;;2.17;;
45792;SDS011;31495;42.740;22.908;2023-04-25T03:13:02;5.78;;;2.30;;
45792;SDS011;31495;42.740;22.908;2023-04-25T03:14:02;3.90;;;2.78;;
45792;SDS011;31495;42.740;22.908;2023-04-25T03:15:01;4.57;;;1.75;;
45792;SDS011;31495;42.740;22.908;2023-04-25T03:16:01;5.70;;;2.03;;
45792;SDS011;31495;42.740;22.908;2023-04-25T03:17:00;4.18;;;2.60;;
45792;SDS011;31495;42.740;22.908;2023-04-25T03:18:00;3.40;;;2.00;;
45792;SDS011;31495;42.740;22.908;2023-04-25T03:19:00;3.45;;;1.88;;
45792;SDS011;31495;42.740;22.908;2023-04-25T03:20:00;6.00;;;1.70;;
45792;SDS011;31495;42.740;22.908;2023-04-25T03:21:00;3.13;;;2.47;;
45792;SDS011;31495;42.740;22.908;2023-04-25T03:22:00;3.47;;;1.92;;
45792;SDS011;31495;42.740;22.908;2023-04-25T03:22:59;3.65;;;2.35;;
45792;SDS011;31495;42.740;22.908;2023-04-25T03:23:59;3.97;;;1.83;;
45792;SDS011;31495;42.740;22.908;2023-04-25T03:25:01;3.90;;;2.20;;
45792;SDS011;31495;42.740;22.908;2023-04-25T03:26:01;3.70;;;2.25;;
45792;SDS011;31495;42.740;22.908;2023-04-25T03:27:01;5.65;;;2.90;;
45792;SDS011;31495;42.740;22.908;2023-04-25T03:28:00;3.08;;;1.77;;
45792;SDS011;31495;42.740;22.908;2023-04-25T03:29:00;6.80;;;3.55;;
45792;SDS011;31495;42.740;22.908;2023-04-25T03:29:59;7.40;;;3.95;;
45792;SDS011;31495;42.740;22.908;2023-04-25T03:30:59;6.25;;;3.78;;
45792;SDS011;31495;42.740;22.908;2023-04-25T03:31:58;7.60;;;4.15;;
45792;SDS011;31495;42.740;22.908;2023-04-25T03:32:57;6.55;;;3.30;;
45792;SDS011;31495;42.740;22.908;2023-04-25T03:33:57;6.63;;;2.85;;
45792;SDS011;31495;42.740;22.908;2023-04-25T03:34:56;4.45;;;2.22;;
45792;SDS011;31495;42.740;22.908;2023-04-25T03:35:56;7.10;;;4.15;;
45792;SDS011;31495;42.740;22.908;2023-04-25T03:36:56;8.90;;;4.80;;
45792;SDS011;31495;42.740;22.908;2023-04-25T03:37:55;6.90;;;3.55;;
45792;SDS011;31495;42.740;22.908;2023-04-25T03:38:54;9.82;;;4.50;;
45792;SDS011;31495;42.740;22.908;2023-04-25T03:39:54;10.27;;;5.97;;
45792;SDS011;31495;42.740;22.908;2023-04-25T03:40:53;9.73;;;4.82;;
45792;SDS011;31495;42.740;22.908;2023-04-25T03:41:53;7.93;;;4.63;;
45792;SDS011;31495;42.740;22.908;2023-04-25T03:42:52;6.57;;;3.70;;
45792;SDS011;31495;42.740;22.908;2023-04-25T03:43:52;8.43;;;4.28;;
45792;SDS011;31495;42.740;22.908;2023-04-25T03:44:51;5.03;;;2.72;;
45792;SDS011;31495;42.740;22.908;2023-04-25T03:45:51;5.97;;;3.95;;
45792;SDS011;31495;42.740;22.908;2023-04-25T03:46:51;9.45;;;4.05;;
45792;SDS011;31495;42.740;22.908;2023-04-25T03:47:50;8.20;;;3.97;;
45792;SDS011;31495;42.740;22.908;2023-04-25T03:48:50;8.35;;;3.70;;
45792;SDS011;31495;42.740;22.908;2023-04-25T03:49:49;9.50;;;4.45;;
45792;SDS011;31495;42.740;22.908;2023-04-25T03:50:50;13.88;;;7.50;;
45792;SDS011;31495;42.740;22.908;2023-04-25T03:51:50;14.52;;;6.85;;
45792;SDS011;31495;42.740;22.908;2023-04-25T03:52:50;8.80;;;3.83;;
45792;SDS011;31495;42.740;22.908;2023-04-25T03:53:49;10.20;;;6.13;;
45792;SDS011;31495;42.740;22.908;2023-04-25T03:54:49;10.80;;;6.35;;
45792;SDS011;31495;42.740;22.908;2023-04-25T03:55:48;12.07;;;6.68;;
45792;SDS011;31495;42.740;22.908;2023-04-25T03:56:48;10.13;;;6.90;;
45792;SDS011;31495;42.740;22.908;2023-04-25T03:57:47;8.68;;;4.82;;
45792;SDS011;31495;42.740;22.908;2023-04-25T03:58:47;5.72;;;4.07;;
45792;SDS011;31495;42.740;22.908;2023-04-25T03:59:46;7.70;;;4.63;;
45792;SDS011;31495;42.740;22.908;2023-04-25T04:00:45;9.73;;;4.95;;
45792;SDS011;31495;42.740;22.908;2023-04-25T04:01:45;7.65;;;4.82;;
45792;SDS011;31495;42.740;22.908;2023-04-25T04:02:44;7.13;;;4.63;;
45792;SDS011;31495;42.740;22.908;2023-04-25T04:03:44;8.68;;;4.78;;
45792;SDS011;31495;42.740;22.908;2023-04-25T04:04:43;8.40;;;4.97;;
45792;SDS011;31495;42.740;22.908;2023-04-25T04:05:43;9.18;;;6.18;;
45792;SDS011;31495;42.740;22.908;2023-04-25T04:06:42;9.40;;;5.13;;
45792;SDS011;31495;42.740;22.908;2023-04-25T04:07:41;9.85;;;5.40;;
45792;SDS011;31495;42.740;22.908;2023-04-25T04:08:41;12.63;;;5.68;;
45792;SDS011;31495;42.740;22.908;2023-04-25T04:09:41;14.00;;;5.68;;
45792;SDS011;31495;42.740;22.908;2023-04-25T04:10:40;9.18;;;4.97;;
45792;SDS011;31495;42.740;22.908;2023-04-25T04:11:40;9.07;;;5.00;;
45792;SDS011;31495;42.740;22.908;2023-04-25T04:12:39;9.07;;;5.40;;
45792;SDS011;31495;42.740;22.908;2023-04-25T04:13:38;8.30;;;4.72;;
45792;SDS011;31495;42.740;22.908;2023-04-25T04:14:38;9.27;;;5.13;;
45792;SDS011;31495;42.740;22.908;2023-04-25T04:15:37;9.23;;;5.20;;
45792;SDS011;31495;42.740;22.908;2023-04-25T04:16:37;8.40;;;4.90;;
45792;SDS011;31495;42.740;22.908;2023-04-25T04:17:36;14.48;;;8.07;;
45792;SDS011;31495;42.740;22.908;2023-04-25T04:18:36;9.93;;;6.57;;
45792;SDS011;31495;42.740;22.908;2023-04-25T04:19:35;14.10;;;8.40;;
45792;SDS011;31495;42.740;22.908;2023-04-25T04:20:35;11.60;;;7.00;;
45792;SDS011;31495;42.740;22.908;2023-04-25T04:21:34;12.73;;;7.68;;
45792;SDS011;31495;42.740;22.908;2023-04-25T04:22:34;9.43;;;6.15;;
45792;SDS011;31495;42.740;22.908;2023-04-25T04:23:34;10.70;;;4.60;;
45792;SDS011;31495;42.740;22.908;2023-04-25T04:24:34;6.30;;;3.70;;
45792;SDS011;31495;42.740;22.908;2023-04-25T04:25:34;5.22;;;3.65;;
45792;SDS011;31495;42.740;22.908;2023-04-25T04:26:33;8.48;;;4.57;;
45792;SDS011;31495;42.740;22.908;2023-04-25T04:27:33;8.48;;;5.13;;
45792;SDS011;31495;42.740;22.908;2023-04-25T04:28:33;9.77;;;6.03;;
45792;SDS011;31495;42.740;22.908;2023-04-25T04:29:32;11.73;;;6.55;;
45792;SDS011;31495;42.740;22.908;2023-04-25T04:30:32;10.48;;;5.43;;
45792;SDS011;31495;42.740;22.908;2023-04-25T04:31:35;10.82;;;5.82;;
45792;SDS011;31495;42.740;22.908;2023-04-25T04:32:34;15.45;;;8.27;;
45792;SDS011;31495;42.740;22.908;2023-04-25T04:33:36;35.30;;;16.30;;
45792;SDS011;31495;42.740;22.908;2023-04-25T04:34:36;12.25;;;8.50;;
45792;SDS011;31495;42.740;22.908;2023-04-25T04:35:36;15.73;;;8.52;;
45792;SDS011;31495;42.740;22.908;2023-04-25T04:36:35;11.68;;;7.40;;
45792;SDS011;31495;42.740;22.908;2023-04-25T04:37:35;8.88;;;6.72;;
45792;SDS011;31495;42.740;22.908;2023-04-25T04:38:35;7.93;;;5.93;;
45792;SDS011;31495;42.740;22.908;2023-04-25T04:39:36;7.10;;;4.85;;
45792;SDS011;31495;42.740;22.908;2023-04-25T04:40:35;8.75;;;6.47;;
45792;SDS011;31495;42.740;22.908;2023-04-25T04:41:34;10.23;;;5.90;;
45792;SDS011;31495;42.740;22.908;2023-04-25T04:42:34;8.15;;;5.75;;
45792;SDS011;31495;42.740;22.908;2023-04-25T04:43:35;12.10;;;8.30;;
45792;SDS011;31495;42.740;22.908;2023-04-25T04:44:34;6.35;;;4.32;;
45792;SDS011;31495;42.740;22.908;2023-04-25T04:45:34;5.45;;;3.30;;
45792;SDS011;31495;42.740;22.908;2023-04-25T04:46:34;6.15;;;4.18;;
45792;SDS011;31495;42.740;22.908;2023-04-25T04:47:40;5.65;;;3.53;;
45792;SDS011;31495;42.740;22.908;2023-04-25T04:48:40;5.72;;;2.88;;
45792;SDS011;31495;42.740;22.908;2023-04-25T04:49:39;2.63;;;1.83;;
45792;SDS011;31495;42.740;22.908;2023-04-25T04:50:39;8.05;;;3.22;;
45792;SDS011;31495;42.740;22.908;2023-04-25T04:51:39;4.00;;;2.58;;
45792;SDS011;31495;42.740;22.908;2023-04-25T04:52:40;3.97;;;2.65;;
45792;SDS011;31495;42.740;22.908;2023-04-25T04:53:39;3.83;;;2.90;;
45792;SDS011;31495;42.740;22.908;2023-04-25T04:54:39;3.30;;;1.98;;
45792;SDS011;31495;42.740;22.908;2023-04-25T04:55:39;4.82;;;3.35;;
45792;SDS011;31495;42.740;22.908;2023-04-25T04:56:40;5.70;;;2.95;;
45792;SDS011;31495;42.740;22.908;2023-04-25T04:57:41;5.00;;;3.95;;
45792;SDS011;31495;42.740;22.908;2023-04-25T04:58:40;9.60;;;3.20;;
45792;SDS011;31495;42.740;22.908;2023-04-25T04:59:39;5.15;;;3.03;;
45792;SDS011;31495;42.740;22.908;2023-04-25T05:00:39;6.70;;;3.00;;
45792;SDS011;31495;42.740;22.908;2023-04-25T05:01:39;4.60;;;2.83;;
45792;SDS011;31495;42.740;22.908;2023-04-25T05:02:38;4.40;;;2.42;;
45792;SDS011;31495;42.740;22.908;2023-04-25T05:03:38;3.58;;;2.70;;
45792;SDS011;31495;42.740;22.908;2023-04-25T05:04:38;7.10;;;5.47;;
45792;SDS011;31495;42.740;22.908;2023-04-25T05:05:38;7.55;;;5.57;;
45792;SDS011;31495;42.740;22.908;2023-04-25T05:07:39;17.88;;;10.40;;
45792;SDS011;31495;42.740;22.908;2023-04-25T05:08:38;15.10;;;9.35;;
45792;SDS011;31495;42.740;22.908;2023-04-25T05:09:38;12.48;;;7.95;;
45792;SDS011;31495;42.740;22.908;2023-04-25T05:10:38;17.52;;;11.48;;
45792;SDS011;31495;42.740;22.908;2023-04-25T05:11:38;12.57;;;6.32;;
45792;SDS011;31495;42.740;22.908;2023-04-25T05:12:38;8.65;;;5.65;;
45792;SDS011;31495;42.740;22.908;2023-04-25T05:13:37;9.60;;;5.97;;
45792;SDS011;31495;42.740;22.908;2023-04-25T05:14:36;7.18;;;4.97;;
45792;SDS011;31495;42.740;22.908;2023-04-25T05:15:36;17.42;;;8.02;;
45792;SDS011;31495;42.740;22.908;2023-04-25T05:16:35;19.25;;;8.07;;
45792;SDS011;31495;42.740;22.908;2023-04-25T05:17:35;16.05;;;9.43;;
45792;SDS011;31495;42.740;22.908;2023-04-25T05:18:34;15.15;;;9.38;;
45792;SDS011;31495;42.740;22.908;2023-04-25T05:19:34;13.30;;;8.32;;
45792;SDS011;31495;42.740;22.908;2023-04-25T05:20:34;10.43;;;7.03;;
45792;SDS011;31495;42.740;22.908;2023-04-25T05:21:33;10.48;;;6.57;;
45792;SDS011;31495;42.740;22.908;2023-04-25T05:22:33;6.57;;;4.90;;
45792;SDS011;31495;42.740;22.908;2023-04-25T05:23:32;6.70;;;4.70;;
45792;SDS011;31495;42.740;22.908;2023-04-25T05:24:32;7.30;;;5.90;;
45792;SDS011;31495;42.740;22.908;2023-04-25T05:25:32;5.38;;;3.97;;
45792;SDS011;31495;42.740;22.908;2023-04-25T05:26:31;5.00;;;3.60;;
45792;SDS011;31495;42.740;22.908;2023-04-25T05:27:30;4.82;;;3.75;;
45792;SDS011;31495;42.740;22.908;2023-04-25T05:28:30;5.00;;;3.00;;
45792;SDS011;31495;42.740;22.908;2023-04-25T05:29:29;6.32;;;3.58;;
45792;SDS011;31495;42.740;22.908;2023-04-25T05:30:28;6.15;;;3.67;;
45792;SDS011;31495;42.740;22.908;2023-04-25T05:31:28;4.65;;;3.38;;
45792;SDS011;31495;42.740;22.908;2023-04-25T05:32:27;5.35;;;3.53;;
45792;SDS011;31495;42.740;22.908;2023-04-25T05:33:26;5.95;;;3.63;;
45792;SDS011;31495;42.740;22.908;2023-04-25T05:34:26;6.20;;;3.60;;
45792;SDS011;31495;42.740;22.908;2023-04-25T05:35:25;5.82;;;3.60;;
45792;SDS011;31495;42.740;22.908;2023-04-25T05:36:25;6.75;;;4.25;;
45792;SDS011;31495;42.740;22.908;2023-04-25T05:37:25;5.13;;;3.53;;
45792;SDS011;31495;42.740;22.908;2023-04-25T05:38:24;4.85;;;2.90;;
45792;SDS011;31495;42.740;22.908;2023-04-25T05:39:24;5.93;;;4.28;;
45792;SDS011;31495;42.740;22.908;2023-04-25T05:40:24;5.03;;;3.72;;
45792;SDS011;31495;42.740;22.908;2023-04-25T05:41:24;4.50;;;3.45;;
45792;SDS011;31495;42.740;22.908;2023-04-25T05:42:23;6.88;;;3.65;;
45792;SDS011;31495;42.740;22.908;2023-04-25T05:43:22;6.32;;;4.00;;
45792;SDS011;31495;42.740;22.908;2023-04-25T05:44:22;7.63;;;4.93;;
45792;SDS011;31495;42.740;22.908;2023-04-25T05:45:21;5.07;;;3.42;;
45792;SDS011;31495;42.740;22.908;2023-04-25T05:46:21;4.63;;;3.25;;
45792;SDS011;31495;42.740;22.908;2023-04-25T05:47:20;6.32;;;4.05;;
45792;SDS011;31495;42.740;22.908;2023-04-25T05:48:19;7.15;;;5.05;;
45792;SDS011;31495;42.740;22.908;2023-04-25T05:49:19;6.68;;;4.57;;
45792;SDS011;31495;42.740;22.908;2023-04-25T05:50:18;4.63;;;2.95;;
45792;SDS011;31495;42.740;22.908;2023-04-25T05:51:18;5.03;;;3.38;;
45792;SDS011;31495;42.740;22.908;2023-04-25T05:52:18;5.20;;;3.60;;
45792;SDS011;31495;42.740;22.908;2023-04-25T05:53:18;4.20;;;3.00;;
45792;SDS011;31495;42.740;22.908;2023-04-25T05:54:19;4.07;;;2.85;;
45792;SDS011;31495;42.740;22.908;2023-04-25T05:55:18;5.95;;;2.95;;